Aviation Digital Data Service (ADDS)

Output produced by TAFs form (1740 UTC 21 April 2018)
found at http://aviationweather.gov/adds/tafs/
 
RJSS 211200Z VRB01KT 8000 NSC 14/12 Q1016
TAF RJSS 211706Z 2118/2300 03003KT 9999 FEW030 
     BECMG 2123/2201 13010KT 
     BECMG 2206/2209 05004KT 
     TEMPO 2218/2300 4000 -RA BR FEW005 BKN008 BKN015